sensor_id;sensor_type;location;lat;lon;timestamp;P1;durP1;ratioP1;P2;durP2;ratioP2
64865;SDS011;51347;41.994;21.402;2022-07-29T00:02:07;12.13;;;7.25;;
64865;SDS011;51347;41.994;21.402;2022-07-29T00:04:34;9.10;;;7.82;;
64865;SDS011;51347;41.994;21.402;2022-07-29T00:07:03;9.10;;;7.53;;
64865;SDS011;51347;41.994;21.402;2022-07-29T00:09:28;9.20;;;7.40;;
64865;SDS011;51347;41.994;21.402;2022-07-29T00:11:54;9.63;;;7.63;;
64865;SDS011;51347;41.994;21.402;2022-07-29T00:14:24;11.88;;;7.88;;
64865;SDS011;51347;41.994;21.402;2022-07-29T00:17:12;10.45;;;8.10;;
64865;SDS011;51347;41.994;21.402;2022-07-29T00:19:37;10.18;;;8.73;;
64865;SDS011;51347;41.994;21.402;2022-07-29T00:22:02;10.27;;;7.60;;
64865;SDS011;51347;41.994;21.402;2022-07-29T00:24:28;10.27;;;7.90;;
64865;SDS011;51347;41.994;21.402;2022-07-29T00:26:56;9.43;;;7.90;;
64865;SDS011;51347;41.994;21.402;2022-07-29T00:29:34;9.77;;;8.52;;
64865;SDS011;51347;41.994;21.402;2022-07-29T00:31:59;9.05;;;7.65;;
64865;SDS011;51347;41.994;21.402;2022-07-29T00:34:28;9.43;;;8.00;;
64865;SDS011;51347;41.994;21.402;2022-07-29T00:37:15;10.75;;;8.45;;
64865;SDS011;51347;41.994;21.402;2022-07-29T00:39:53;11.98;;;8.85;;
64865;SDS011;51347;41.994;21.402;2022-07-29T00:42:33;11.60;;;8.38;;
64865;SDS011;51347;41.994;21.402;2022-07-29T00:45:08;9.85;;;7.50;;
64865;SDS011;51347;41.994;21.402;2022-07-29T00:47:40;9.73;;;7.90;;
64865;SDS011;51347;41.994;21.402;2022-07-29T00:50:06;9.63;;;8.65;;
64865;SDS011;51347;41.994;21.402;2022-07-29T00:52:32;10.32;;;8.57;;
64865;SDS011;51347;41.994;21.402;2022-07-29T00:54:57;10.63;;;7.70;;
64865;SDS011;51347;41.994;21.402;2022-07-29T00:57:29;12.23;;;8.27;;
64865;SDS011;51347;41.994;21.402;2022-07-29T01:03:37;12.55;;;8.98;;
64865;SDS011;51347;41.994;21.402;2022-07-29T01:06:50;11.55;;;7.65;;
64865;SDS011;51347;41.994;21.402;2022-07-29T01:09:42;8.13;;;7.32;;
64865;SDS011;51347;41.994;21.402;2022-07-29T01:12:07;12.23;;;7.97;;
64865;SDS011;51347;41.994;21.402;2022-07-29T01:14:37;12.23;;;8.35;;
64865;SDS011;51347;41.994;21.402;2022-07-29T01:22:14;9.65;;;8.55;;
64865;SDS011;51347;41.994;21.402;2022-07-29T01:27:51;10.52;;;8.10;;
64865;SDS011;51347;41.994;21.402;2022-07-29T01:30:13;11.98;;;8.80;;
64865;SDS011;51347;41.994;21.402;2022-07-29T01:32:38;8.98;;;8.07;;
64865;SDS011;51347;41.994;21.402;2022-07-29T01:37:57;11.55;;;8.18;;
64865;SDS011;51347;41.994;21.402;2022-07-29T01:43:11;10.40;;;7.70;;
64865;SDS011;51347;41.994;21.402;2022-07-29T01:45:38;10.70;;;8.93;;
64865;SDS011;51347;41.994;21.402;2022-07-29T01:49:02;11.07;;;8.27;;
64865;SDS011;51347;41.994;21.402;2022-07-29T01:50:56;11.52;;;8.77;;
64865;SDS011;51347;41.994;21.402;2022-07-29T01:53:28;9.38;;;8.23;;
64865;SDS011;51347;41.994;21.402;2022-07-29T01:55:54;10.38;;;7.93;;
64865;SDS011;51347;41.994;21.402;2022-07-29T01:58:20;9.00;;;8.10;;
64865;SDS011;51347;41.994;21.402;2022-07-29T02:00:46;10.23;;;8.40;;
64865;SDS011;51347;41.994;21.402;2022-07-29T02:03:13;7.90;;;7.10;;
64865;SDS011;51347;41.994;21.402;2022-07-29T02:05:41;37.63;;;29.50;;
64865;SDS011;51347;41.994;21.402;2022-07-29T02:08:07;33.15;;;24.98;;
64865;SDS011;51347;41.994;21.402;2022-07-29T02:10:35;11.35;;;10.15;;
64865;SDS011;51347;41.994;21.402;2022-07-29T02:13:02;11.50;;;9.45;;
64865;SDS011;51347;41.994;21.402;2022-07-29T02:15:30;9.88;;;8.63;;
64865;SDS011;51347;41.994;21.402;2022-07-29T02:18:01;9.57;;;8.57;;
64865;SDS011;51347;41.994;21.402;2022-07-29T02:20:27;10.90;;;9.80;;
64865;SDS011;51347;41.994;21.402;2022-07-29T02:22:52;13.32;;;10.32;;
64865;SDS011;51347;41.994;21.402;2022-07-29T02:25:18;11.93;;;9.10;;
64865;SDS011;51347;41.994;21.402;2022-07-29T02:27:46;10.88;;;9.48;;
64865;SDS011;51347;41.994;21.402;2022-07-29T02:30:12;10.27;;;8.95;;
64865;SDS011;51347;41.994;21.402;2022-07-29T02:32:37;11.32;;;9.23;;
64865;SDS011;51347;41.994;21.402;2022-07-29T02:35:05;10.90;;;9.40;;
64865;SDS011;51347;41.994;21.402;2022-07-29T02:37:31;11.10;;;9.48;;
64865;SDS011;51347;41.994;21.402;2022-07-29T02:39:57;11.95;;;9.15;;
64865;SDS011;51347;41.994;21.402;2022-07-29T02:42:23;10.32;;;9.23;;
64865;SDS011;51347;41.994;21.402;2022-07-29T02:44:49;9.80;;;8.82;;
64865;SDS011;51347;41.994;21.402;2022-07-29T02:53:05;11.52;;;10.38;;
64865;SDS011;51347;41.994;21.402;2022-07-29T02:55:33;9.65;;;8.65;;
64865;SDS011;51347;41.994;21.402;2022-07-29T02:58:00;10.45;;;8.82;;
64865;SDS011;51347;41.994;21.402;2022-07-29T03:00:29;11.60;;;8.98;;
64865;SDS011;51347;41.994;21.402;2022-07-29T03:02:58;12.05;;;9.38;;
64865;SDS011;51347;41.994;21.402;2022-07-29T03:05:24;12.25;;;9.05;;
64865;SDS011;51347;41.994;21.402;2022-07-29T03:07:51;10.18;;;9.13;;
64865;SDS011;51347;41.994;21.402;2022-07-29T03:10:18;12.77;;;10.00;;
64865;SDS011;51347;41.994;21.402;2022-07-29T03:12:43;10.73;;;9.50;;
64865;SDS011;51347;41.994;21.402;2022-07-29T03:15:09;12.38;;;8.93;;
64865;SDS011;51347;41.994;21.402;2022-07-29T03:17:34;13.95;;;9.63;;
64865;SDS011;51347;41.994;21.402;2022-07-29T03:20:00;10.50;;;9.40;;
64865;SDS011;51347;41.994;21.402;2022-07-29T03:22:25;13.82;;;10.00;;
64865;SDS011;51347;41.994;21.402;2022-07-29T03:24:51;12.32;;;9.95;;
64865;SDS011;51347;41.994;21.402;2022-07-29T03:27:16;14.20;;;9.60;;
64865;SDS011;51347;41.994;21.402;2022-07-29T03:29:41;14.93;;;9.93;;
64865;SDS011;51347;41.994;21.402;2022-07-29T03:32:07;11.63;;;10.43;;
64865;SDS011;51347;41.994;21.402;2022-07-29T03:34:32;13.55;;;9.90;;
64865;SDS011;51347;41.994;21.402;2022-07-29T03:36:57;12.80;;;10.35;;
64865;SDS011;51347;41.994;21.402;2022-07-29T03:39:24;13.23;;;9.98;;
64865;SDS011;51347;41.994;21.402;2022-07-29T03:41:53;14.10;;;10.10;;
64865;SDS011;51347;41.994;21.402;2022-07-29T03:44:19;13.48;;;11.02;;
64865;SDS011;51347;41.994;21.402;2022-07-29T03:46:45;15.30;;;10.40;;
64865;SDS011;51347;41.994;21.402;2022-07-29T03:49:11;11.20;;;9.90;;
64865;SDS011;51347;41.994;21.402;2022-07-29T03:51:37;17.88;;;11.88;;
64865;SDS011;51347;41.994;21.402;2022-07-29T03:54:03;14.57;;;10.40;;
64865;SDS011;51347;41.994;21.402;2022-07-29T03:56:29;12.80;;;9.95;;
64865;SDS011;51347;41.994;21.402;2022-07-29T03:58:54;12.82;;;10.15;;
64865;SDS011;51347;41.994;21.402;2022-07-29T04:01:20;14.57;;;10.95;;
64865;SDS011;51347;41.994;21.402;2022-07-29T04:03:46;17.48;;;10.85;;
64865;SDS011;51347;41.994;21.402;2022-07-29T04:06:11;13.88;;;11.07;;
64865;SDS011;51347;41.994;21.402;2022-07-29T04:08:37;19.48;;;10.55;;
64865;SDS011;51347;41.994;21.402;2022-07-29T04:11:03;12.27;;;10.10;;
64865;SDS011;51347;41.994;21.402;2022-07-29T04:13:28;18.20;;;10.65;;
64865;SDS011;51347;41.994;21.402;2022-07-29T04:15:53;15.57;;;11.57;;
64865;SDS011;51347;41.994;21.402;2022-07-29T04:18:19;16.60;;;12.77;;
64865;SDS011;51347;41.994;21.402;2022-07-29T04:20:44;20.75;;;13.90;;
64865;SDS011;51347;41.994;21.402;2022-07-29T04:23:09;16.63;;;12.10;;
64865;SDS011;51347;41.994;21.402;2022-07-29T04:25:39;20.23;;;14.38;;
64865;SDS011;51347;41.994;21.402;2022-07-29T04:28:04;17.77;;;13.15;;
64865;SDS011;51347;41.994;21.402;2022-07-29T04:30:30;16.85;;;13.48;;
64865;SDS011;51347;41.994;21.402;2022-07-29T04:32:56;18.23;;;14.50;;
64865;SDS011;51347;41.994;21.402;2022-07-29T04:35:21;20.50;;;14.00;;
64865;SDS011;51347;41.994;21.402;2022-07-29T04:37:46;16.35;;;12.88;;
64865;SDS011;51347;41.994;21.402;2022-07-29T04:40:11;19.77;;;13.18;;
64865;SDS011;51347;41.994;21.402;2022-07-29T04:42:37;19.58;;;13.75;;
64865;SDS011;51347;41.994;21.402;2022-07-29T04:45:03;16.42;;;12.85;;
64865;SDS011;51347;41.994;21.402;2022-07-29T04:47:28;19.17;;;13.90;;
64865;SDS011;51347;41.994;21.402;2022-07-29T04:49:53;21.40;;;13.80;;
64865;SDS011;51347;41.994;21.402;2022-07-29T04:52:19;23.67;;;14.88;;
64865;SDS011;51347;41.994;21.402;2022-07-29T04:54:44;15.25;;;12.75;;
64865;SDS011;51347;41.994;21.402;2022-07-29T04:57:09;13.95;;;11.82;;
64865;SDS011;51347;41.994;21.402;2022-07-29T04:59:34;14.50;;;10.45;;
64865;SDS011;51347;41.994;21.402;2022-07-29T05:02:00;14.93;;;10.55;;
64865;SDS011;51347;41.994;21.402;2022-07-29T05:04:25;10.82;;;9.18;;
64865;SDS011;51347;41.994;21.402;2022-07-29T05:06:50;12.15;;;9.73;;
64865;SDS011;51347;41.994;21.402;2022-07-29T05:09:16;18.25;;;10.23;;
64865;SDS011;51347;41.994;21.402;2022-07-29T05:11:41;13.13;;;9.38;;
64865;SDS011;51347;41.994;21.402;2022-07-29T05:14:06;11.98;;;8.90;;
64865;SDS011;51347;41.994;21.402;2022-07-29T05:16:32;12.02;;;8.63;;
64865;SDS011;51347;41.994;21.402;2022-07-29T05:18:57;12.30;;;8.50;;
64865;SDS011;51347;41.994;21.402;2022-07-29T05:21:22;9.73;;;8.25;;
64865;SDS011;51347;41.994;21.402;2022-07-29T05:23:47;11.68;;;8.68;;
64865;SDS011;51347;41.994;21.402;2022-07-29T05:26:13;14.27;;;8.98;;
64865;SDS011;51347;41.994;21.402;2022-07-29T05:28:38;15.05;;;9.68;;
64865;SDS011;51347;41.994;21.402;2022-07-29T05:31:03;11.63;;;8.98;;
64865;SDS011;51347;41.994;21.402;2022-07-29T05:33:29;11.77;;;8.20;;
64865;SDS011;51347;41.994;21.402;2022-07-29T05:35:54;10.93;;;8.75;;
64865;SDS011;51347;41.994;21.402;2022-07-29T05:38:19;11.32;;;9.15;;
64865;SDS011;51347;41.994;21.402;2022-07-29T05:40:44;14.98;;;9.70;;
64865;SDS011;51347;41.994;21.402;2022-07-29T05:43:10;18.13;;;10.90;;
64865;SDS011;51347;41.994;21.402;2022-07-29T05:45:35;16.90;;;10.55;;
64865;SDS011;51347;41.994;21.402;2022-07-29T05:48:00;13.63;;;10.75;;
64865;SDS011;51347;41.994;21.402;2022-07-29T05:50:26;15.15;;;11.43;;
64865;SDS011;51347;41.994;21.402;2022-07-29T05:52:51;13.48;;;10.25;;
64865;SDS011;51347;41.994;21.402;2022-07-29T05:55:17;14.20;;;11.43;;
64865;SDS011;51347;41.994;21.402;2022-07-29T05:57:42;15.90;;;12.32;;
64865;SDS011;51347;41.994;21.402;2022-07-29T06:00:09;18.05;;;13.40;;
64865;SDS011;51347;41.994;21.402;2022-07-29T06:02:35;23.40;;;12.95;;
64865;SDS011;51347;41.994;21.402;2022-07-29T06:05:00;19.27;;;12.85;;
64865;SDS011;51347;41.994;21.402;2022-07-29T06:07:25;15.70;;;11.38;;
64865;SDS011;51347;41.994;21.402;2022-07-29T06:09:50;12.52;;;10.63;;
64865;SDS011;51347;41.994;21.402;2022-07-29T06:12:16;19.80;;;11.40;;
64865;SDS011;51347;41.994;21.402;2022-07-29T06:14:41;13.82;;;10.20;;
64865;SDS011;51347;41.994;21.402;2022-07-29T06:17:07;15.55;;;10.55;;
64865;SDS011;51347;41.994;21.402;2022-07-29T06:19:35;13.70;;;10.98;;
64865;SDS011;51347;41.994;21.402;2022-07-29T06:22:01;15.50;;;11.40;;
64865;SDS011;51347;41.994;21.402;2022-07-29T06:24:26;16.95;;;10.35;;
64865;SDS011;51347;41.994;21.402;2022-07-29T06:26:52;11.38;;;9.07;;
64865;SDS011;51347;41.994;21.402;2022-07-29T06:29:17;11.23;;;9.40;;
64865;SDS011;51347;41.994;21.402;2022-07-29T06:31:43;15.32;;;11.57;;
64865;SDS011;51347;41.994;21.402;2022-07-29T06:34:08;13.00;;;10.38;;
64865;SDS011;51347;41.994;21.402;2022-07-29T06:36:34;12.70;;;10.18;;
64865;SDS011;51347;41.994;21.402;2022-07-29T06:39:00;15.55;;;11.07;;
64865;SDS011;51347;41.994;21.402;2022-07-29T06:41:25;11.68;;;9.75;;
64865;SDS011;51347;41.994;21.402;2022-07-29T06:43:51;12.25;;;10.02;;
64865;SDS011;51347;41.994;21.402;2022-07-29T06:46:17;17.80;;;14.77;;
64865;SDS011;51347;41.994;21.402;2022-07-29T06:48:43;13.32;;;11.75;;
64865;SDS011;51347;41.994;21.402;2022-07-29T06:51:09;15.80;;;11.30;;
64865;SDS011;51347;41.994;21.402;2022-07-29T06:53:34;12.77;;;10.57;;
64865;SDS011;51347;41.994;21.402;2022-07-29T06:56:00;12.68;;;10.95;;
64865;SDS011;51347;41.994;21.402;2022-07-29T06:58:26;17.25;;;11.05;;
64865;SDS011;51347;41.994;21.402;2022-07-29T07:00:51;13.75;;;10.90;;
64865;SDS011;51347;41.994;21.402;2022-07-29T07:03:17;12.63;;;10.95;;
64865;SDS011;51347;41.994;21.402;2022-07-29T07:05:43;12.70;;;9.88;;
64865;SDS011;51347;41.994;21.402;2022-07-29T07:08:09;12.48;;;10.13;;
64865;SDS011;51347;41.994;21.402;2022-07-29T07:10:34;14.30;;;11.32;;
64865;SDS011;51347;41.994;21.402;2022-07-29T07:13:00;13.70;;;10.77;;
64865;SDS011;51347;41.994;21.402;2022-07-29T07:15:26;13.30;;;9.63;;
64865;SDS011;51347;41.994;21.402;2022-07-29T07:17:52;11.90;;;9.70;;
64865;SDS011;51347;41.994;21.402;2022-07-29T07:20:17;15.32;;;10.35;;
64865;SDS011;51347;41.994;21.402;2022-07-29T07:22:43;12.48;;;10.15;;
64865;SDS011;51347;41.994;21.402;2022-07-29T07:25:08;11.90;;;9.20;;
64865;SDS011;51347;41.994;21.402;2022-07-29T07:27:34;17.92;;;10.68;;
64865;SDS011;51347;41.994;21.402;2022-07-29T07:29:59;13.70;;;9.70;;
64865;SDS011;51347;41.994;21.402;2022-07-29T07:32:25;14.07;;;10.32;;
64865;SDS011;51347;41.994;21.402;2022-07-29T07:34:50;11.82;;;9.63;;
64865;SDS011;51347;41.994;21.402;2022-07-29T07:37:15;13.50;;;10.60;;
64865;SDS011;51347;41.994;21.402;2022-07-29T07:39:41;14.05;;;10.18;;
64865;SDS011;51347;41.994;21.402;2022-07-29T07:42:06;10.43;;;9.32;;
64865;SDS011;51347;41.994;21.402;2022-07-29T07:44:31;10.88;;;9.68;;
64865;SDS011;51347;41.994;21.402;2022-07-29T07:46:57;11.73;;;8.82;;
64865;SDS011;51347;41.994;21.402;2022-07-29T07:49:22;11.70;;;9.15;;
64865;SDS011;51347;41.994;21.402;2022-07-29T07:51:47;11.63;;;9.25;;
64865;SDS011;51347;41.994;21.402;2022-07-29T07:54:13;13.02;;;10.20;;
64865;SDS011;51347;41.994;21.402;2022-07-29T07:56:38;12.20;;;9.30;;
64865;SDS011;51347;41.994;21.402;2022-07-29T07:59:03;11.88;;;9.23;;
64865;SDS011;51347;41.994;21.402;2022-07-29T08:01:29;15.70;;;10.15;;
64865;SDS011;51347;41.994;21.402;2022-07-29T08:03:54;16.70;;;10.63;;
64865;SDS011;51347;41.994;21.402;2022-07-29T08:06:21;14.93;;;10.73;;
64865;SDS011;51347;41.994;21.402;2022-07-29T08:08:46;11.32;;;9.13;;
64865;SDS011;51347;41.994;21.402;2022-07-29T08:11:11;12.20;;;10.90;;
64865;SDS011;51347;41.994;21.402;2022-07-29T08:13:37;11.50;;;9.40;;
64865;SDS011;51347;41.994;21.402;2022-07-29T08:16:02;14.10;;;10.38;;
64865;SDS011;51347;41.994;21.402;2022-07-29T08:18:36;10.48;;;9.38;;
64865;SDS011;51347;41.994;21.402;2022-07-29T08:21:02;14.18;;;10.02;;
64865;SDS011;51347;41.994;21.402;2022-07-29T08:23:27;15.02;;;10.80;;
64865;SDS011;51347;41.994;21.402;2022-07-29T08:26:00;13.35;;;11.13;;
64865;SDS011;51347;41.994;21.402;2022-07-29T08:28:25;11.27;;;9.35;;
64865;SDS011;51347;41.994;21.402;2022-07-29T08:30:50;13.05;;;9.75;;
64865;SDS011;51347;41.994;21.402;2022-07-29T08:33:16;10.85;;;9.57;;
64865;SDS011;51347;41.994;21.402;2022-07-29T08:35:41;11.48;;;9.05;;
64865;SDS011;51347;41.994;21.402;2022-07-29T08:38:06;12.48;;;9.60;;
64865;SDS011;51347;41.994;21.402;2022-07-29T08:40:32;12.75;;;9.70;;
64865;SDS011;51347;41.994;21.402;2022-07-29T08:42:57;10.18;;;8.50;;
64865;SDS011;51347;41.994;21.402;2022-07-29T08:45:22;10.95;;;9.55;;
64865;SDS011;51347;41.994;21.402;2022-07-29T08:47:48;10.52;;;8.82;;
64865;SDS011;51347;41.994;21.402;2022-07-29T08:50:13;10.88;;;7.60;;
64865;SDS011;51347;41.994;21.402;2022-07-29T08:52:40;9.88;;;7.88;;
64865;SDS011;51347;41.994;21.402;2022-07-29T08:55:06;11.75;;;8.00;;
64865;SDS011;51347;41.994;21.402;2022-07-29T08:57:32;8.98;;;7.93;;
64865;SDS011;51347;41.994;21.402;2022-07-29T08:59:58;9.35;;;8.10;;
64865;SDS011;51347;41.994;21.402;2022-07-29T09:02:24;8.43;;;7.43;;
64865;SDS011;51347;41.994;21.402;2022-07-29T09:04:53;8.07;;;7.28;;
64865;SDS011;51347;41.994;21.402;2022-07-29T09:07:19;11.15;;;9.68;;
64865;SDS011;51347;41.994;21.402;2022-07-29T09:09:44;10.30;;;8.13;;
64865;SDS011;51347;41.994;21.402;2022-07-29T09:12:10;10.88;;;8.40;;
64865;SDS011;51347;41.994;21.402;2022-07-29T09:14:39;7.97;;;6.95;;
64865;SDS011;51347;41.994;21.402;2022-07-29T09:17:04;9.70;;;8.45;;
64865;SDS011;51347;41.994;21.402;2022-07-29T09:19:31;9.13;;;8.07;;
64865;SDS011;51347;41.994;21.402;2022-07-29T09:21:57;9.02;;;7.38;;
64865;SDS011;51347;41.994;21.402;2022-07-29T09:24:45;9.75;;;7.75;;
64865;SDS011;51347;41.994;21.402;2022-07-29T09:27:22;11.50;;;8.27;;
64865;SDS011;51347;41.994;21.402;2022-07-29T09:32:22;9.07;;;7.72;;
64865;SDS011;51347;41.994;21.402;2022-07-29T09:34:48;9.73;;;6.95;;
64865;SDS011;51347;41.994;21.402;2022-07-29T09:37:25;11.25;;;7.88;;
64865;SDS011;51347;41.994;21.402;2022-07-29T09:39:50;8.73;;;7.85;;
64865;SDS011;51347;41.994;21.402;2022-07-29T09:42:16;10.10;;;8.05;;
64865;SDS011;51347;41.994;21.402;2022-07-29T09:44:52;8.68;;;7.82;;
64865;SDS011;51347;41.994;21.402;2022-07-29T09:47:18;10.43;;;9.32;;
64865;SDS011;51347;41.994;21.402;2022-07-29T09:49:59;11.30;;;8.65;;
64865;SDS011;51347;41.994;21.402;2022-07-29T09:52:25;8.85;;;8.02;;
64865;SDS011;51347;41.994;21.402;2022-07-29T09:54:50;10.68;;;8.40;;
64865;SDS011;51347;41.994;21.402;2022-07-29T09:57:23;9.30;;;8.13;;
64865;SDS011;51347;41.994;21.402;2022-07-29T10:00:00;8.43;;;7.53;;
64865;SDS011;51347;41.994;21.402;2022-07-29T10:02:29;8.10;;;7.25;;
64865;SDS011;51347;41.994;21.402;2022-07-29T10:04:55;8.48;;;7.22;;
64865;SDS011;51347;41.994;21.402;2022-07-29T10:07:20;9.65;;;7.75;;
64865;SDS011;51347;41.994;21.402;2022-07-29T10:09:52;8.50;;;6.95;;
64865;SDS011;51347;41.994;21.402;2022-07-29T10:12:19;10.70;;;8.07;;
64865;SDS011;51347;41.994;21.402;2022-07-29T10:14:47;9.13;;;7.72;;
64865;SDS011;51347;41.994;21.402;2022-07-29T10:17:12;11.00;;;8.50;;
64865;SDS011;51347;41.994;21.402;2022-07-29T10:19:38;11.02;;;8.13;;
64865;SDS011;51347;41.994;21.402;2022-07-29T10:22:05;9.25;;;8.30;;
64865;SDS011;51347;41.994;21.402;2022-07-29T10:24:31;9.32;;;8.43;;
64865;SDS011;51347;41.994;21.402;2022-07-29T10:26:57;8.38;;;7.57;;
64865;SDS011;51347;41.994;21.402;2022-07-29T10:29:23;10.85;;;8.77;;
64865;SDS011;51347;41.994;21.402;2022-07-29T10:34:23;9.77;;;8.35;;
64865;SDS011;51347;41.994;21.402;2022-07-29T10:39:42;11.77;;;9.00;;
64865;SDS011;51347;41.994;21.402;2022-07-29T10:42:16;11.90;;;10.70;;
64865;SDS011;51347;41.994;21.402;2022-07-29T10:44:42;9.13;;;7.80;;
64865;SDS011;51347;41.994;21.402;2022-07-29T10:47:15;9.00;;;7.72;;
64865;SDS011;51347;41.994;21.402;2022-07-29T10:49:54;9.07;;;8.18;;
64865;SDS011;51347;41.994;21.402;2022-07-29T10:52:19;11.68;;;8.00;;
64865;SDS011;51347;41.994;21.402;2022-07-29T10:54:48;7.60;;;7.00;;
64865;SDS011;51347;41.994;21.402;2022-07-29T10:57:16;9.68;;;7.72;;
64865;SDS011;51347;41.994;21.402;2022-07-29T10:59:42;8.07;;;7.10;;
64865;SDS011;51347;41.994;21.402;2022-07-29T11:07:18;11.18;;;7.95;;
64865;SDS011;51347;41.994;21.402;2022-07-29T11:09:43;9.48;;;8.05;;
64865;SDS011;51347;41.994;21.402;2022-07-29T11:14:55;11.18;;;7.43;;
64865;SDS011;51347;41.994;21.402;2022-07-29T11:17:20;9.15;;;7.53;;
64865;SDS011;51347;41.994;21.402;2022-07-29T11:19:46;8.45;;;7.30;;
64865;SDS011;51347;41.994;21.402;2022-07-29T11:22:12;8.40;;;7.57;;
64865;SDS011;51347;41.994;21.402;2022-07-29T11:25:12;9.30;;;7.40;;
64865;SDS011;51347;41.994;21.402;2022-07-29T11:27:38;10.25;;;8.13;;
64865;SDS011;51347;41.994;21.402;2022-07-29T11:30:04;7.75;;;6.82;;
64865;SDS011;51347;41.994;21.402;2022-07-29T11:32:40;8.35;;;7.20;;
64865;SDS011;51347;41.994;21.402;2022-07-29T11:35:18;8.82;;;7.90;;
64865;SDS011;51347;41.994;21.402;2022-07-29T11:37:46;8.80;;;7.90;;
64865;SDS011;51347;41.994;21.402;2022-07-29T11:40:12;9.07;;;7.93;;
64865;SDS011;51347;41.994;21.402;2022-07-29T11:42:42;10.20;;;8.23;;
64865;SDS011;51347;41.994;21.402;2022-07-29T11:45:26;9.32;;;6.82;;
64865;SDS011;51347;41.994;21.402;2022-07-29T11:47:57;8.60;;;7.47;;
64865;SDS011;51347;41.994;21.402;2022-07-29T11:50:27;8.77;;;7.25;;
64865;SDS011;51347;41.994;21.402;2022-07-29T11:52:52;9.32;;;7.78;;
64865;SDS011;51347;41.994;21.402;2022-07-29T11:55:19;8.77;;;7.88;;
64865;SDS011;51347;41.994;21.402;2022-07-29T11:57:45;7.90;;;7.10;;
64865;SDS011;51347;41.994;21.402;2022-07-29T12:00:11;10.85;;;7.10;;
64865;SDS011;51347;41.994;21.402;2022-07-29T12:02:40;8.20;;;6.78;;
64865;SDS011;51347;41.994;21.402;2022-07-29T12:05:07;9.20;;;7.80;;
64865;SDS011;51347;41.994;21.402;2022-07-29T12:07:33;10.18;;;7.72;;
64865;SDS011;51347;41.994;21.402;2022-07-29T12:09:58;8.68;;;7.05;;
64865;SDS011;51347;41.994;21.402;2022-07-29T12:12:24;9.30;;;7.57;;
64865;SDS011;51347;41.994;21.402;2022-07-29T12:14:50;9.65;;;7.57;;
64865;SDS011;51347;41.994;21.402;2022-07-29T12:17:25;8.07;;;7.20;;
64865;SDS011;51347;41.994;21.402;2022-07-29T12:19:51;7.88;;;6.78;;
64865;SDS011;51347;41.994;21.402;2022-07-29T12:22:26;8.30;;;6.90;;
64865;SDS011;51347;41.994;21.402;2022-07-29T12:24:52;7.95;;;7.15;;
64865;SDS011;51347;41.994;21.402;2022-07-29T12:27:17;6.78;;;6.18;;
64865;SDS011;51347;41.994;21.402;2022-07-29T12:29:43;7.50;;;6.90;;
64865;SDS011;51347;41.994;21.402;2022-07-29T12:32:08;8.88;;;7.70;;
64865;SDS011;51347;41.994;21.402;2022-07-29T12:34:34;8.45;;;7.10;;
64865;SDS011;51347;41.994;21.402;2022-07-29T12:36:59;9.30;;;7.53;;
64865;SDS011;51347;41.994;21.402;2022-07-29T12:39:26;8.55;;;6.65;;
64865;SDS011;51347;41.994;21.402;2022-07-29T12:41:53;8.20;;;6.90;;
64865;SDS011;51347;41.994;21.402;2022-07-29T12:44:19;7.85;;;6.93;;
64865;SDS011;51347;41.994;21.402;2022-07-29T12:46:45;7.45;;;5.60;;
64865;SDS011;51347;41.994;21.402;2022-07-29T12:49:21;8.50;;;6.57;;
64865;SDS011;51347;41.994;21.402;2022-07-29T12:51:46;7.03;;;6.00;;
64865;SDS011;51347;41.994;21.402;2022-07-29T12:54:13;9.63;;;7.28;;
64865;SDS011;51347;41.994;21.402;2022-07-29T12:56:38;7.28;;;6.57;;
64865;SDS011;51347;41.994;21.402;2022-07-29T12:59:18;7.88;;;6.95;;
64865;SDS011;51347;41.994;21.402;2022-07-29T13:01:44;7.75;;;6.55;;
64865;SDS011;51347;41.994;21.402;2022-07-29T13:04:09;6.50;;;5.88;;
64865;SDS011;51347;41.994;21.402;2022-07-29T13:06:42;6.15;;;5.55;;
64865;SDS011;51347;41.994;21.402;2022-07-29T13:11:34;7.63;;;5.68;;
64865;SDS011;51347;41.994;21.402;2022-07-29T13:14:00;9.90;;;8.35;;
64865;SDS011;51347;41.994;21.402;2022-07-29T13:16:26;7.63;;;6.93;;
64865;SDS011;51347;41.994;21.402;2022-07-29T13:21:49;6.65;;;5.95;;
64865;SDS011;51347;41.994;21.402;2022-07-29T13:24:14;5.20;;;4.70;;
64865;SDS011;51347;41.994;21.402;2022-07-29T13:26:40;8.02;;;5.50;;
64865;SDS011;51347;41.994;21.402;2022-07-29T13:29:06;9.30;;;4.97;;
64865;SDS011;51347;41.994;21.402;2022-07-29T13:31:31;7.15;;;5.30;;
64865;SDS011;51347;41.994;21.402;2022-07-29T13:33:57;6.68;;;5.53;;
64865;SDS011;51347;41.994;21.402;2022-07-29T13:36:22;6.15;;;5.55;;
64865;SDS011;51347;41.994;21.402;2022-07-29T13:38:47;7.40;;;5.70;;
64865;SDS011;51347;41.994;21.402;2022-07-29T13:41:12;6.13;;;5.40;;
64865;SDS011;51347;41.994;21.402;2022-07-29T13:43:38;5.50;;;4.93;;
64865;SDS011;51347;41.994;21.402;2022-07-29T13:46:04;5.78;;;5.25;;
64865;SDS011;51347;41.994;21.402;2022-07-29T13:48:29;7.35;;;5.00;;
64865;SDS011;51347;41.994;21.402;2022-07-29T13:50:54;7.60;;;5.55;;
64865;SDS011;51347;41.994;21.402;2022-07-29T13:53:20;6.28;;;5.20;;
64865;SDS011;51347;41.994;21.402;2022-07-29T13:55:45;8.73;;;5.25;;
64865;SDS011;51347;41.994;21.402;2022-07-29T13:58:10;7.40;;;5.88;;
64865;SDS011;51347;41.994;21.402;2022-07-29T14:00:36;5.45;;;4.95;;
64865;SDS011;51347;41.994;21.402;2022-07-29T14:03:01;7.20;;;5.18;;
64865;SDS011;51347;41.994;21.402;2022-07-29T14:05:27;7.32;;;5.85;;
64865;SDS011;51347;41.994;21.402;2022-07-29T14:07:52;4.95;;;4.45;;
64865;SDS011;51347;41.994;21.402;2022-07-29T14:10:17;6.38;;;4.25;;
64865;SDS011;51347;41.994;21.402;2022-07-29T14:12:42;5.25;;;4.55;;
64865;SDS011;51347;41.994;21.402;2022-07-29T14:15:08;8.98;;;8.10;;
64865;SDS011;51347;41.994;21.402;2022-07-29T14:17:33;9.10;;;4.60;;
64865;SDS011;51347;41.994;21.402;2022-07-29T14:19:59;5.80;;;4.55;;
64865;SDS011;51347;41.994;21.402;2022-07-29T14:22:24;7.07;;;5.10;;
64865;SDS011;51347;41.994;21.402;2022-07-29T14:24:50;4.93;;;4.35;;
64865;SDS011;51347;41.994;21.402;2022-07-29T14:27:15;4.93;;;4.15;;
64865;SDS011;51347;41.994;21.402;2022-07-29T14:29:40;5.30;;;4.82;;
64865;SDS011;51347;41.994;21.402;2022-07-29T14:32:06;6.60;;;5.32;;
64865;SDS011;51347;41.994;21.402;2022-07-29T14:34:32;5.75;;;4.93;;
64865;SDS011;51347;41.994;21.402;2022-07-29T14:36:57;6.13;;;4.47;;
64865;SDS011;51347;41.994;21.402;2022-07-29T14:39:22;5.05;;;4.40;;
64865;SDS011;51347;41.994;21.402;2022-07-29T14:41:50;4.65;;;4.25;;
64865;SDS011;51347;41.994;21.402;2022-07-29T14:44:16;4.90;;;4.35;;
64865;SDS011;51347;41.994;21.402;2022-07-29T14:46:41;6.63;;;4.28;;
64865;SDS011;51347;41.994;21.402;2022-07-29T14:49:07;7.35;;;6.35;;
64865;SDS011;51347;41.994;21.402;2022-07-29T14:51:32;4.95;;;4.43;;
64865;SDS011;51347;41.994;21.402;2022-07-29T14:53:58;6.57;;;3.97;;
64865;SDS011;51347;41.994;21.402;2022-07-29T14:56:23;6.75;;;4.53;;
64865;SDS011;51347;41.994;21.402;2022-07-29T14:58:48;6.38;;;4.35;;
64865;SDS011;51347;41.994;21.402;2022-07-29T15:01:14;4.65;;;4.22;;
64865;SDS011;51347;41.994;21.402;2022-07-29T15:03:39;5.88;;;4.45;;
64865;SDS011;51347;41.994;21.402;2022-07-29T15:06:04;5.05;;;4.65;;
64865;SDS011;51347;41.994;21.402;2022-07-29T15:08:30;5.00;;;4.38;;